sensor_id;sensor_type;location;lat;lon;timestamp;temperature;humidity
7498;DHT22;3790;48.806;9.140;2023-04-24T00:00:36;10.80;99.90
7498;DHT22;3790;48.806;9.140;2023-04-24T00:05:40;10.90;99.90
7498;DHT22;3790;48.806;9.140;2023-04-24T00:10:42;10.90;99.90
7498;DHT22;3790;48.806;9.140;2023-04-24T00:15:42;11.00;99.90
7498;DHT22;3790;48.806;9.140;2023-04-24T00:20:43;11.10;99.90
7498;DHT22;3790;48.806;9.140;2023-04-24T00:25:44;11.20;99.90
7498;DHT22;3790;48.806;9.140;2023-04-24T00:30:44;11.20;99.90
7498;DHT22;3790;48.806;9.140;2023-04-24T00:35:45;11.30;99.90
7498;DHT22;3790;48.806;9.140;2023-04-24T00:40:46;11.30;99.90
7498;DHT22;3790;48.806;9.140;2023-04-24T00:45:47;11.40;99.90
7498;DHT22;3790;48.806;9.140;2023-04-24T00:50:48;11.40;99.90
7498;DHT22;3790;48.806;9.140;2023-04-24T00:55:48;11.40;99.90
7498;DHT22;3790;48.806;9.140;2023-04-24T01:00:50;11.40;99.90
7498;DHT22;3790;48.806;9.140;2023-04-24T01:05:54;11.40;99.90
7498;DHT22;3790;48.806;9.140;2023-04-24T01:10:57;11.40;99.90
7498;DHT22;3790;48.806;9.140;2023-04-24T01:15:57;11.40;99.90
7498;DHT22;3790;48.806;9.140;2023-04-24T01:20:59;11.40;99.90
7498;DHT22;3790;48.806;9.140;2023-04-24T01:26:03;11.40;99.90
7498;DHT22;3790;48.806;9.140;2023-04-24T01:31:05;11.40;99.90
7498;DHT22;3790;48.806;9.140;2023-04-24T01:36:05;11.30;99.90
7498;DHT22;3790;48.806;9.140;2023-04-24T01:41:06;11.20;99.90
7498;DHT22;3790;48.806;9.140;2023-04-24T01:46:07;11.10;99.90
7498;DHT22;3790;48.806;9.140;2023-04-24T01:51:08;11.10;99.90
7498;DHT22;3790;48.806;9.140;2023-04-24T01:56:08;11.00;99.90
7498;DHT22;3790;48.806;9.140;2023-04-24T02:01:09;10.90;99.90
7498;DHT22;3790;48.806;9.140;2023-04-24T02:06:15;10.90;99.90
7498;DHT22;3790;48.806;9.140;2023-04-24T02:11:16;10.90;99.90
7498;DHT22;3790;48.806;9.140;2023-04-24T02:16:16;10.80;99.90
7498;DHT22;3790;48.806;9.140;2023-04-24T02:21:17;10.70;99.90
7498;DHT22;3790;48.806;9.140;2023-04-24T02:26:17;10.80;99.90
7498;DHT22;3790;48.806;9.140;2023-04-24T02:31:18;10.90;99.90
7498;DHT22;3790;48.806;9.140;2023-04-24T02:36:19;11.00;99.90
7498;DHT22;3790;48.806;9.140;2023-04-24T02:41:19;11.10;99.90
7498;DHT22;3790;48.806;9.140;2023-04-24T02:46:20;10.90;99.90
7498;DHT22;3790;48.806;9.140;2023-04-24T02:51:20;10.40;99.90
7498;DHT22;3790;48.806;9.140;2023-04-24T02:56:21;10.20;99.90
7498;DHT22;3790;48.806;9.140;2023-04-24T03:01:22;10.00;99.90
7498;DHT22;3790;48.806;9.140;2023-04-24T03:06:22;9.90;99.90
7498;DHT22;3790;48.806;9.140;2023-04-24T03:11:23;9.90;99.90
7498;DHT22;3790;48.806;9.140;2023-04-24T03:16:23;9.90;99.90
7498;DHT22;3790;48.806;9.140;2023-04-24T03:21:24;9.90;99.90
7498;DHT22;3790;48.806;9.140;2023-04-24T03:26:24;9.80;99.90
7498;DHT22;3790;48.806;9.140;2023-04-24T03:31:25;9.60;99.90
7498;DHT22;3790;48.806;9.140;2023-04-24T03:36:25;9.60;99.90
7498;DHT22;3790;48.806;9.140;2023-04-24T03:41:26;9.60;99.90
7498;DHT22;3790;48.806;9.140;2023-04-24T03:46:26;9.60;99.90
7498;DHT22;3790;48.806;9.140;2023-04-24T03:51:27;9.60;99.90
7498;DHT22;3790;48.806;9.140;2023-04-24T03:56:28;9.50;99.90
7498;DHT22;3790;48.806;9.140;2023-04-24T04:01:28;9.30;99.90
7498;DHT22;3790;48.806;9.140;2023-04-24T04:06:29;9.20;99.90
7498;DHT22;3790;48.806;9.140;2023-04-24T04:11:31;9.30;99.90
7498;DHT22;3790;48.806;9.140;2023-04-24T04:16:31;9.40;99.90
7498;DHT22;3790;48.806;9.140;2023-04-24T04:21:32;9.60;99.90
7498;DHT22;3790;48.806;9.140;2023-04-24T04:26:32;9.60;99.90
7498;DHT22;3790;48.806;9.140;2023-04-24T04:31:33;9.40;99.90
7498;DHT22;3790;48.806;9.140;2023-04-24T04:36:33;9.20;99.90
7498;DHT22;3790;48.806;9.140;2023-04-24T04:41:36;9.00;99.90
7498;DHT22;3790;48.806;9.140;2023-04-24T04:46:38;8.80;99.90
7498;DHT22;3790;48.806;9.140;2023-04-24T04:51:38;8.60;99.90
7498;DHT22;3790;48.806;9.140;2023-04-24T04:56:39;8.60;99.90
7498;DHT22;3790;48.806;9.140;2023-04-24T05:01:39;8.60;99.90
7498;DHT22;3790;48.806;9.140;2023-04-24T05:06:40;8.40;99.90
7498;DHT22;3790;48.806;9.140;2023-04-24T05:11:41;8.40;99.90
7498;DHT22;3790;48.806;9.140;2023-04-24T05:16:41;8.40;99.90
7498;DHT22;3790;48.806;9.140;2023-04-24T05:21:42;8.30;99.90
7498;DHT22;3790;48.806;9.140;2023-04-24T05:26:42;8.30;99.90
7498;DHT22;3790;48.806;9.140;2023-04-24T05:31:43;8.40;99.90
7498;DHT22;3790;48.806;9.140;2023-04-24T05:36:43;8.40;99.90
7498;DHT22;3790;48.806;9.140;2023-04-24T05:41:44;8.50;99.90
7498;DHT22;3790;48.806;9.140;2023-04-24T05:46:44;8.50;99.90
7498;DHT22;3790;48.806;9.140;2023-04-24T05:51:45;8.50;99.90
7498;DHT22;3790;48.806;9.140;2023-04-24T05:56:45;8.60;99.90
7498;DHT22;3790;48.806;9.140;2023-04-24T06:01:46;8.80;99.90
7498;DHT22;3790;48.806;9.140;2023-04-24T06:06:49;8.80;99.90
7498;DHT22;3790;48.806;9.140;2023-04-24T06:11:51;8.60;99.90
7498;DHT22;3790;48.806;9.140;2023-04-24T06:16:53;8.60;99.90
7498;DHT22;3790;48.806;9.140;2023-04-24T06:21:54;8.80;99.90
7498;DHT22;3790;48.806;9.140;2023-04-24T06:26:54;9.00;99.90
7498;DHT22;3790;48.806;9.140;2023-04-24T06:31:56;9.50;99.90
7498;DHT22;3790;48.806;9.140;2023-04-24T06:36:57;10.50;99.90
7498;DHT22;3790;48.806;9.140;2023-04-24T06:41:58;10.70;99.90
7498;DHT22;3790;48.806;9.140;2023-04-24T06:46:59;10.90;99.90
7498;DHT22;3790;48.806;9.140;2023-04-24T06:51:59;11.10;99.90
7498;DHT22;3790;48.806;9.140;2023-04-24T06:57:00;11.40;99.90
7498;DHT22;3790;48.806;9.140;2023-04-24T07:02:03;11.60;99.90
7498;DHT22;3790;48.806;9.140;2023-04-24T07:07:04;11.60;99.90
7498;DHT22;3790;48.806;9.140;2023-04-24T07:12:04;11.80;99.90
7498;DHT22;3790;48.806;9.140;2023-04-24T07:17:06;11.70;99.90
7498;DHT22;3790;48.806;9.140;2023-04-24T07:22:06;11.50;99.90
7498;DHT22;3790;48.806;9.140;2023-04-24T07:27:07;11.50;99.90
7498;DHT22;3790;48.806;9.140;2023-04-24T07:32:10;11.30;99.90
7498;DHT22;3790;48.806;9.140;2023-04-24T07:37:10;11.50;99.90
7498;DHT22;3790;48.806;9.140;2023-04-24T07:42:11;12.00;99.90
7498;DHT22;3790;48.806;9.140;2023-04-24T07:47:11;12.20;99.90
7498;DHT22;3790;48.806;9.140;2023-04-24T07:52:12;12.20;99.90
7498;DHT22;3790;48.806;9.140;2023-04-24T07:57:12;11.80;99.90
7498;DHT22;3790;48.806;9.140;2023-04-24T08:02:14;11.60;99.90
7498;DHT22;3790;48.806;9.140;2023-04-24T08:07:15;11.50;99.90
7498;DHT22;3790;48.806;9.140;2023-04-24T08:12:16;11.30;99.90
7498;DHT22;3790;48.806;9.140;2023-04-24T08:17:17;11.20;99.90
7498;DHT22;3790;48.806;9.140;2023-04-24T08:22:18;11.40;99.90
7498;DHT22;3790;48.806;9.140;2023-04-24T08:27:18;11.40;99.90
7498;DHT22;3790;48.806;9.140;2023-04-24T08:32:19;11.60;99.90
7498;DHT22;3790;48.806;9.140;2023-04-24T08:37:20;11.70;99.90
7498;DHT22;3790;48.806;9.140;2023-04-24T08:42:21;11.70;99.90
7498;DHT22;3790;48.806;9.140;2023-04-24T08:47:22;11.90;99.90
7498;DHT22;3790;48.806;9.140;2023-04-24T08:52:23;11.90;99.90
7498;DHT22;3790;48.806;9.140;2023-04-24T08:57:25;11.50;99.90
7498;DHT22;3790;48.806;9.140;2023-04-24T09:02:26;11.70;99.90
7498;DHT22;3790;48.806;9.140;2023-04-24T09:07:27;11.90;99.90
7498;DHT22;3790;48.806;9.140;2023-04-24T09:12:29;11.70;99.90
7498;DHT22;3790;48.806;9.140;2023-04-24T09:17:33;11.10;99.90
7498;DHT22;3790;48.806;9.140;2023-04-24T09:22:34;10.40;99.90
7498;DHT22;3790;48.806;9.140;2023-04-24T09:27:35;9.60;99.90
7498;DHT22;3790;48.806;9.140;2023-04-24T09:32:36;9.40;99.90
7498;DHT22;3790;48.806;9.140;2023-04-24T09:37:45;9.90;99.90
7498;DHT22;3790;48.806;9.140;2023-04-24T09:42:52;10.30;99.90
7498;DHT22;3790;48.806;9.140;2023-04-24T09:47:53;11.10;99.90
7498;DHT22;3790;48.806;9.140;2023-04-24T09:53:03;11.30;99.90
7498;DHT22;3790;48.806;9.140;2023-04-24T09:58:04;11.30;99.90
7498;DHT22;3790;48.806;9.140;2023-04-24T10:03:05;11.30;99.90
7498;DHT22;3790;48.806;9.140;2023-04-24T10:08:08;11.60;99.90
7498;DHT22;3790;48.806;9.140;2023-04-24T10:13:13;11.50;99.90
7498;DHT22;3790;48.806;9.140;2023-04-24T10:18:15;11.40;99.90
7498;DHT22;3790;48.806;9.140;2023-04-24T10:23:16;11.80;99.90
7498;DHT22;3790;48.806;9.140;2023-04-24T10:28:20;12.70;99.90
7498;DHT22;3790;48.806;9.140;2023-04-24T10:33:22;13.20;99.90
7498;DHT22;3790;48.806;9.140;2023-04-24T10:38:25;13.10;99.90
7498;DHT22;3790;48.806;9.140;2023-04-24T10:43:27;12.70;99.90
7498;DHT22;3790;48.806;9.140;2023-04-24T10:48:27;12.10;99.90
7498;DHT22;3790;48.806;9.140;2023-04-24T10:53:29;12.30;99.90
7498;DHT22;3790;48.806;9.140;2023-04-24T10:58:42;12.40;99.90
7498;DHT22;3790;48.806;9.140;2023-04-24T11:03:51;12.10;99.90
7498;DHT22;3790;48.806;9.140;2023-04-24T11:09:04;11.90;99.90
7498;DHT22;3790;48.806;9.140;2023-04-24T11:14:07;11.60;99.90
7498;DHT22;3790;48.806;9.140;2023-04-24T11:29:46;12.20;99.90
7498;DHT22;3790;48.806;9.140;2023-04-24T11:34:52;13.10;99.90
7498;DHT22;3790;48.806;9.140;2023-04-24T11:39:54;13.50;99.90
7498;DHT22;3790;48.806;9.140;2023-04-24T11:44:55;13.00;99.90
7498;DHT22;3790;48.806;9.140;2023-04-24T11:49:56;12.70;99.90
7498;DHT22;3790;48.806;9.140;2023-04-24T11:54:56;12.10;99.90
7498;DHT22;3790;48.806;9.140;2023-04-24T11:59:57;12.20;99.90
7498;DHT22;3790;48.806;9.140;2023-04-24T12:04:58;13.90;99.90
7498;DHT22;3790;48.806;9.140;2023-04-24T12:09:59;14.30;99.90
7498;DHT22;3790;48.806;9.140;2023-04-24T12:14:59;14.00;99.90
7498;DHT22;3790;48.806;9.140;2023-04-24T12:20:05;13.10;99.90
7498;DHT22;3790;48.806;9.140;2023-04-24T12:25:10;12.70;99.90
7498;DHT22;3790;48.806;9.140;2023-04-24T12:30:13;12.60;99.90
7498;DHT22;3790;48.806;9.140;2023-04-24T12:35:23;13.10;99.90
7498;DHT22;3790;48.806;9.140;2023-04-24T12:40:25;12.40;99.90
7498;DHT22;3790;48.806;9.140;2023-04-24T12:45:26;12.80;99.90
7498;DHT22;3790;48.806;9.140;2023-04-24T12:50:28;13.80;99.90
7498;DHT22;3790;48.806;9.140;2023-04-24T12:55:28;13.40;99.90
7498;DHT22;3790;48.806;9.140;2023-04-24T13:00:29;12.50;99.90
7498;DHT22;3790;48.806;9.140;2023-04-24T13:05:29;11.00;99.90
7498;DHT22;3790;48.806;9.140;2023-04-24T13:10:32;9.90;99.90
7498;DHT22;3790;48.806;9.140;2023-04-24T13:15:35;11.50;99.90
7498;DHT22;3790;48.806;9.140;2023-04-24T13:20:36;12.30;99.90
7498;DHT22;3790;48.806;9.140;2023-04-24T13:25:36;12.10;99.90
7498;DHT22;3790;48.806;9.140;2023-04-24T13:30:39;12.40;99.90
7498;DHT22;3790;48.806;9.140;2023-04-24T13:35:39;12.80;99.90
7498;DHT22;3790;48.806;9.140;2023-04-24T13:40:40;12.40;99.90
7498;DHT22;3790;48.806;9.140;2023-04-24T13:45:40;12.20;99.90
7498;DHT22;3790;48.806;9.140;2023-04-24T13:50:44;12.30;99.90
7498;DHT22;3790;48.806;9.140;2023-04-24T13:55:45;11.20;99.90
7498;DHT22;3790;48.806;9.140;2023-04-24T14:00:45;11.00;99.90
7498;DHT22;3790;48.806;9.140;2023-04-24T14:05:46;12.20;99.90
7498;DHT22;3790;48.806;9.140;2023-04-24T14:10:46;15.00;99.90
7498;DHT22;3790;48.806;9.140;2023-04-24T14:15:47;15.70;99.90
7498;DHT22;3790;48.806;9.140;2023-04-24T14:20:48;16.30;99.90
7498;DHT22;3790;48.806;9.140;2023-04-24T14:25:48;16.20;99.90
7498;DHT22;3790;48.806;9.140;2023-04-24T14:30:52;15.30;99.90
7498;DHT22;3790;48.806;9.140;2023-04-24T14:35:52;16.30;99.90
7498;DHT22;3790;48.806;9.140;2023-04-24T14:40:53;15.40;99.90
7498;DHT22;3790;48.806;9.140;2023-04-24T14:45:53;14.10;99.90
7498;DHT22;3790;48.806;9.140;2023-04-24T14:50:54;12.90;99.90
7498;DHT22;3790;48.806;9.140;2023-04-24T14:55:54;12.70;99.90
7498;DHT22;3790;48.806;9.140;2023-04-24T15:00:55;13.50;99.90
7498;DHT22;3790;48.806;9.140;2023-04-24T15:05:56;15.60;99.90
7498;DHT22;3790;48.806;9.140;2023-04-24T15:10:56;14.70;99.90
7498;DHT22;3790;48.806;9.140;2023-04-24T15:15:57;13.80;99.90
7498;DHT22;3790;48.806;9.140;2023-04-24T15:20:57;13.10;99.90
7498;DHT22;3790;48.806;9.140;2023-04-24T15:25:58;12.30;99.90
7498;DHT22;3790;48.806;9.140;2023-04-24T15:31:02;12.00;99.90
7498;DHT22;3790;48.806;9.140;2023-04-24T15:36:02;11.30;99.90
7498;DHT22;3790;48.806;9.140;2023-04-24T15:41:03;9.80;99.90
7498;DHT22;3790;48.806;9.140;2023-04-24T15:46:04;9.20;99.90
7498;DHT22;3790;48.806;9.140;2023-04-24T15:51:05;9.20;99.90
7498;DHT22;3790;48.806;9.140;2023-04-24T15:56:05;9.40;99.90
7498;DHT22;3790;48.806;9.140;2023-04-24T16:01:06;9.80;99.90
7498;DHT22;3790;48.806;9.140;2023-04-24T16:06:06;10.60;99.90
7498;DHT22;3790;48.806;9.140;2023-04-24T16:11:07;11.30;99.90
7498;DHT22;3790;48.806;9.140;2023-04-24T16:16:08;12.40;99.90
7498;DHT22;3790;48.806;9.140;2023-04-24T16:21:08;13.40;99.90
7498;DHT22;3790;48.806;9.140;2023-04-24T16:26:09;14.30;99.90
7498;DHT22;3790;48.806;9.140;2023-04-24T16:31:09;14.90;99.90
7498;DHT22;3790;48.806;9.140;2023-04-24T16:36:10;14.10;99.90
7498;DHT22;3790;48.806;9.140;2023-04-24T16:41:12;13.80;99.90
7498;DHT22;3790;48.806;9.140;2023-04-24T16:46:13;13.80;99.90
7498;DHT22;3790;48.806;9.140;2023-04-24T16:51:16;14.70;99.90
7498;DHT22;3790;48.806;9.140;2023-04-24T16:56:16;17.50;99.90
7498;DHT22;3790;48.806;9.140;2023-04-24T17:01:17;19.80;99.90
7498;DHT22;3790;48.806;9.140;2023-04-24T17:06:17;20.00;99.90
7498;DHT22;3790;48.806;9.140;2023-04-24T17:11:18;18.30;99.90
7498;DHT22;3790;48.806;9.140;2023-04-24T17:16:19;16.10;99.90
7498;DHT22;3790;48.806;9.140;2023-04-24T17:21:19;17.00;99.90
7498;DHT22;3790;48.806;9.140;2023-04-24T17:26:20;17.00;99.90
7498;DHT22;3790;48.806;9.140;2023-04-24T17:31:21;15.00;99.90
7498;DHT22;3790;48.806;9.140;2023-04-24T17:36:24;13.90;99.90
7498;DHT22;3790;48.806;9.140;2023-04-24T17:41:25;12.70;99.90
7498;DHT22;3790;48.806;9.140;2023-04-24T17:46:26;12.20;99.90
7498;DHT22;3790;48.806;9.140;2023-04-24T17:51:26;11.80;99.90
7498;DHT22;3790;48.806;9.140;2023-04-24T17:56:27;11.70;99.90
7498;DHT22;3790;48.806;9.140;2023-04-24T18:01:27;11.70;99.90
7498;DHT22;3790;48.806;9.140;2023-04-24T18:06:28;11.70;99.90
7498;DHT22;3790;48.806;9.140;2023-04-24T18:11:29;11.80;99.90
7498;DHT22;3790;48.806;9.140;2023-04-24T18:16:29;11.60;99.90
7498;DHT22;3790;48.806;9.140;2023-04-24T18:21:30;11.40;99.90
7498;DHT22;3790;48.806;9.140;2023-04-24T18:26:31;11.40;99.90
7498;DHT22;3790;48.806;9.140;2023-04-24T18:31:31;11.40;99.90
7498;DHT22;3790;48.806;9.140;2023-04-24T18:36:32;11.20;99.90
7498;DHT22;3790;48.806;9.140;2023-04-24T18:41:33;11.00;99.90
7498;DHT22;3790;48.806;9.140;2023-04-24T18:46:34;10.90;99.90
7498;DHT22;3790;48.806;9.140;2023-04-24T18:51:40;10.60;99.90
7498;DHT22;3790;48.806;9.140;2023-04-24T18:56:41;10.40;99.90
7498;DHT22;3790;48.806;9.140;2023-04-24T19:01:41;10.40;99.90
7498;DHT22;3790;48.806;9.140;2023-04-24T19:06:42;10.30;99.90
7498;DHT22;3790;48.806;9.140;2023-04-24T19:11:42;10.20;99.90
7498;DHT22;3790;48.806;9.140;2023-04-24T19:16:44;10.10;99.90
7498;DHT22;3790;48.806;9.140;2023-04-24T19:21:44;9.90;99.90
7498;DHT22;3790;48.806;9.140;2023-04-24T19:26:46;9.90;99.90
7498;DHT22;3790;48.806;9.140;2023-04-24T19:31:47;9.80;99.90
7498;DHT22;3790;48.806;9.140;2023-04-24T19:36:48;9.70;99.90
7498;DHT22;3790;48.806;9.140;2023-04-24T19:41:48;9.70;99.90
7498;DHT22;3790;48.806;9.140;2023-04-24T19:46:49;9.70;99.90
7498;DHT22;3790;48.806;9.140;2023-04-24T19:51:49;9.70;99.90
7498;DHT22;3790;48.806;9.140;2023-04-24T19:56:50;9.80;99.90
7498;DHT22;3790;48.806;9.140;2023-04-24T20:01:50;9.90;99.90
7498;DHT22;3790;48.806;9.140;2023-04-24T20:06:52;9.90;99.90
7498;DHT22;3790;48.806;9.140;2023-04-24T20:11:52;9.80;99.90
7498;DHT22;3790;48.806;9.140;2023-04-24T20:16:53;9.80;99.90
7498;DHT22;3790;48.806;9.140;2023-04-24T20:21:54;9.60;99.90
7498;DHT22;3790;48.806;9.140;2023-04-24T20:26:55;9.40;99.90
7498;DHT22;3790;48.806;9.140;2023-04-24T20:31:56;9.30;99.90
7498;DHT22;3790;48.806;9.140;2023-04-24T20:36:57;9.00;99.90
7498;DHT22;3790;48.806;9.140;2023-04-24T20:41:58;8.90;99.90
7498;DHT22;3790;48.806;9.140;2023-04-24T20:46:59;8.90;99.90
7498;DHT22;3790;48.806;9.140;2023-04-24T20:52:00;8.80;99.90
7498;DHT22;3790;48.806;9.140;2023-04-24T20:57:00;8.80;99.90
7498;DHT22;3790;48.806;9.140;2023-04-24T21:02:01;8.80;99.90
7498;DHT22;3790;48.806;9.140;2023-04-24T21:07:02;8.70;99.90
7498;DHT22;3790;48.806;9.140;2023-04-24T21:12:03;8.70;99.90
7498;DHT22;3790;48.806;9.140;2023-04-24T21:17:04;8.70;99.90
7498;DHT22;3790;48.806;9.140;2023-04-24T21:22:07;8.70;99.90
7498;DHT22;3790;48.806;9.140;2023-04-24T21:27:07;8.60;99.90
7498;DHT22;3790;48.806;9.140;2023-04-24T21:32:08;8.60;99.90
7498;DHT22;3790;48.806;9.140;2023-04-24T21:37:08;8.60;99.90
7498;DHT22;3790;48.806;9.140;2023-04-24T21:42:10;8.50;99.90
7498;DHT22;3790;48.806;9.140;2023-04-24T21:47:11;8.70;99.90
7498;DHT22;3790;48.806;9.140;2023-04-24T21:52:11;8.80;99.90
7498;DHT22;3790;48.806;9.140;2023-04-24T21:57:12;8.90;99.90
7498;DHT22;3790;48.806;9.140;2023-04-24T22:02:13;8.80;99.90
7498;DHT22;3790;48.806;9.140;2023-04-24T22:07:13;8.80;99.90
7498;DHT22;3790;48.806;9.140;2023-04-24T22:12:14;8.80;99.90
7498;DHT22;3790;48.806;9.140;2023-04-24T22:17:15;8.90;99.90
7498;DHT22;3790;48.806;9.140;2023-04-24T22:22:16;8.90;99.90
7498;DHT22;3790;48.806;9.140;2023-04-24T22:27:17;9.00;99.90
7498;DHT22;3790;48.806;9.140;2023-04-24T22:32:18;9.20;99.90
7498;DHT22;3790;48.806;9.140;2023-04-24T22:37:18;9.20;99.90
7498;DHT22;3790;48.806;9.140;2023-04-24T22:42:19;9.10;99.90
7498;DHT22;3790;48.806;9.140;2023-04-24T22:47:19;9.10;99.90
7498;DHT22;3790;48.806;9.140;2023-04-24T22:52:20;9.10;99.90
7498;DHT22;3790;48.806;9.140;2023-04-24T22:57:21;9.00;99.90
7498;DHT22;3790;48.806;9.140;2023-04-24T23:02:22;9.10;99.90
7498;DHT22;3790;48.806;9.140;2023-04-24T23:07:22;9.30;99.90
7498;DHT22;3790;48.806;9.140;2023-04-24T23:12:23;9.30;99.90
7498;DHT22;3790;48.806;9.140;2023-04-24T23:17:23;9.20;99.90
7498;DHT22;3790;48.806;9.140;2023-04-24T23:22:24;9.10;99.90
7498;DHT22;3790;48.806;9.140;2023-04-24T23:27:25;9.00;99.90
7498;DHT22;3790;48.806;9.140;2023-04-24T23:32:25;8.80;99.90
7498;DHT22;3790;48.806;9.140;2023-04-24T23:37:26;8.70;99.90
7498;DHT22;3790;48.806;9.140;2023-04-24T23:42:26;8.70;99.90
7498;DHT22;3790;48.806;9.140;2023-04-24T23:47:27;8.70;99.90
7498;DHT22;3790;48.806;9.140;2023-04-24T23:52:28;8.60;99.90
7498;DHT22;3790;48.806;9.140;2023-04-24T23:57:28;8.60;99.90
